Sentry Page Protection

Latest Glasgow METAR Decoded

What is a METAR?

Raw METAR: EGPF 180720Z 07004KT 9999 OVC015 05/03 Q1033
Time Published: Tue Jan 18 07:20:00 2022

Altimeter: 1033 hPa (30.50 inHg)
Clouds: Overcast layer at 1500ft - Reported AGL
Visibility: 10km (6.2sm)
Dewpoint: 3°C (37°F)
Temperature: 5°C (41°F)
Wind: ENE-070 at 4kt

Data pulled from AVWX API.

Customise webcam positions

Apply changes